Time;durP1;ratioP1;P1;durP2;ratioP2;P2;SDS_P1;SDS_P2;PMS_P1;PMS_P2;Temp;Humidity;BMP_temperature;BMP_pressure;BME280_temperature;BME280_humidity;BME280_pressure;Samples;Min_cycle;Max_cycle;Signal;HPM_P1;HPM_P2
2022/11/05 00:09:32;;;;;;;21.50;19.48;;;;;;;8.44;100.00;99398.03;10440560;28;20441;-73
2022/11/05 00:19:54;;;;;;;26.67;20.92;;;;;;;8.61;100.00;99401.88;10450552;28;20128;-73
2022/11/05 00:25:12;;;;;;;22.35;20.40;;;;;;;8.55;100.00;99408.19;10454070;28;20056;-73
2022/11/05 00:30:18;;;;;;;24.05;22.02;;;;;;;8.50;100.00;99404.84;10450653;28;20068;-73
2022/11/05 00:35:21;;;;;;;24.20;21.58;;;;;;;8.71;100.00;99417.22;10449369;28;20069;-73
2022/11/05 00:40:23;;;;;;;23.67;21.25;;;;;;;8.53;100.00;99412.59;10449535;28;20041;-72
2022/11/05 00:45:24;;;;;;;21.48;19.67;;;;;;;8.64;100.00;99414.88;10470557;28;20045;-72
2022/11/05 00:50:27;;;;;;;22.50;20.75;;;;;;;8.49;100.00;99422.31;10469131;28;20052;-72
2022/11/05 00:55:38;;;;;;;24.40;22.27;;;;;;;8.62;100.00;99430.63;10448664;28;20056;-72
2022/11/05 01:00:47;;;;;;;24.70;22.45;;;;;;;8.39;100.00;99436.63;10449625;28;20033;-73
2022/11/05 01:05:55;;;;;;;24.35;22.45;;;;;;;8.56;100.00;99442.19;10448329;28;20049;-73
2022/11/05 01:10:57;;;;;;;22.80;21.15;;;;;;;8.68;100.00;99442.69;10450559;28;20051;-73
2022/11/05 01:16:04;;;;;;;22.77;20.98;;;;;;;8.63;100.00;99444.56;10447866;28;20079;-73
2022/11/05 01:21:15;;;;;;;27.13;21.85;;;;;;;8.69;100.00;99439.16;10446700;28;20040;-72
2022/11/05 01:26:17;;;;;;;22.73;20.98;;;;;;;8.65;100.00;99440.16;10445164;28;20045;-73
2022/11/05 01:31:19;;;;;;;23.30;21.45;;;;;;;8.57;100.00;99453.50;10446615;28;20045;-74
2022/11/05 01:36:20;;;;;;;26.30;22.17;;;;;;;8.66;100.00;99468.91;10445293;28;20053;-73
2022/11/05 01:41:22;;;;;;;23.55;21.40;;;;;;;8.71;100.00;99474.00;10463522;28;20041;-73
2022/11/05 01:46:28;;;;;;;21.63;19.73;;;;;;;8.62;100.00;99476.94;10444574;28;20056;-73
2022/11/05 01:51:30;;;;;;;17.55;16.05;;;;;;;8.48;100.00;99495.72;10445566;28;20056;-72
2022/11/05 01:56:36;;;;;;;15.45;14.35;;;;;;;8.42;100.00;99502.00;10447669;28;20095;-72
2022/11/05 02:01:38;;;;;;;16.23;15.02;;;;;;;8.54;100.00;99504.25;10463349;28;20491;-73
2022/11/05 02:06:46;;;;;;;16.90;15.57;;;;;;;8.46;100.00;99505.41;10444495;28;20072;-72
2022/11/05 02:11:50;;;;;;;18.65;17.20;;;;;;;8.51;100.00;99508.72;10445017;28;20049;-72
2022/11/05 02:17:00;;;;;;;20.17;18.40;;;;;;;8.47;100.00;99504.50;10446029;28;20048;-73
2022/11/05 02:22:20;;;;;;;18.70;17.17;;;;;;;8.49;100.00;99506.13;10443386;28;20142;-73
2022/11/05 02:27:42;;;;;;;19.52;18.13;;;;;;;8.60;100.00;99511.06;10442785;28;20040;-73
2022/11/05 02:33:09;;;;;;;23.40;18.00;;;;;;;8.45;100.00;99524.63;10461304;28;20097;-72
2022/11/05 02:38:28;;;;;;;17.65;16.05;;;;;;;8.48;100.00;99533.25;10443940;28;20049;-72
2022/11/05 02:43:40;;;;;;;18.85;17.38;;;;;;;8.63;100.00;99537.13;10440979;28;20087;-69
2022/11/05 02:49:09;;;;;;;17.30;15.73;;;;;;;8.59;100.00;99527.69;10458634;28;20073;-69
2022/11/05 02:54:13;;;;;;;18.02;16.45;;;;;;;8.40;100.00;99531.75;10458902;28;20052;-70
2022/11/05 02:59:15;;;;;;;17.13;15.40;;;;;;;8.40;100.00;99535.25;10459249;28;20069;-69
2022/11/05 03:04:20;;;;;;;15.90;14.50;;;;;;;8.43;100.00;99544.78;10458232;28;20380;-69
2022/11/05 03:09:53;;;;;;;16.27;14.77;;;;;;;8.41;100.00;99560.53;10458129;28;20103;-69
2022/11/05 03:15:11;;;;;;;16.70;14.70;;;;;;;8.32;100.00;99566.88;10457911;28;20501;-69
2022/11/05 03:20:18;;;;;;;15.32;14.07;;;;;;;8.55;100.00;99567.97;10459878;28;20124;-70
2022/11/05 03:25:23;;;;;;;16.85;15.57;;;;;;;8.58;100.00;99563.47;10460478;28;20049;-70
2022/11/05 03:30:25;;;;;;;20.92;19.27;;;;;;;8.46;100.00;99571.72;10458520;28;20037;-70
2022/11/05 03:35:33;;;;;;;25.33;23.02;;;;;;;8.43;100.00;99574.44;10458826;28;20045;-69
2022/11/05 03:40:37;;;;;;;31.15;26.27;;;;;;;8.45;100.00;99580.47;10458321;28;20209;-69
2022/11/05 03:46:05;;;;;;;32.00;28.13;;;;;;;8.40;100.00;99578.91;10459047;28;20045;-69
2022/11/05 03:51:30;;;;;;;31.15;27.85;;;;;;;8.44;100.00;99585.78;10458325;28;20037;-69
2022/11/05 03:56:41;;;;;;;32.13;27.25;;;;;;;8.55;100.00;99595.03;10456938;28;20077;-69
2022/11/05 04:01:43;;;;;;;34.25;27.00;;;;;;;8.50;100.00;99607.41;10458571;28;20079;-70
2022/11/05 04:17:25;;;;;;;35.25;26.08;;;;;;;8.48;100.00;99626.69;10456684;28;20076;-69
2022/11/05 04:27:50;;;;;;;32.95;26.83;;;;;;;8.17;100.00;99652.88;10458199;28;20053;-69
2022/11/05 04:33:13;;;;;;;38.78;27.65;;;;;;;8.22;100.00;99654.44;10456036;28;20458;-70
2022/11/05 04:38:17;;;;;;;42.45;28.02;;;;;;;8.29;100.00;99656.00;10456315;28;20513;-69
2022/11/05 04:43:19;;;;;;;41.70;27.00;;;;;;;8.24;100.00;99660.50;10439530;28;20045;-69
2022/11/05 04:48:21;;;;;;;32.97;27.50;;;;;;;8.13;100.00;99673.03;10458065;28;20116;-69
2022/11/05 04:53:22;;;;;;;30.23;26.90;;;;;;;8.13;100.00;99673.03;10456322;28;20071;-69
2022/11/05 04:58:24;;;;;;;30.38;25.83;;;;;;;8.22;100.00;99677.16;10456368;28;20048;-69
2022/11/05 05:03:25;;;;;;;36.58;25.85;;;;;;;8.42;100.00;99671.41;10441905;28;20102;-69
2022/11/05 05:08:27;;;;;;;28.08;25.17;;;;;;;8.26;100.00;99674.41;10465300;28;20087;-69
2022/11/05 05:13:29;;;;;;;29.27;25.42;;;;;;;8.22;100.00;99680.63;10464465;28;20064;-69
2022/11/05 05:18:30;;;;;;;33.72;23.65;;;;;;;8.48;100.00;99682.53;10462590;28;20115;-69
2022/11/05 05:23:32;;;;;;;30.77;22.70;;;;;;;8.35;100.00;99682.00;10463274;28;20041;-69
2022/11/05 05:28:33;;;;;;;30.15;22.95;;;;;;;8.23;100.00;99697.19;10462826;28;20056;-70
2022/11/05 05:33:35;;;;;;;25.20;21.63;;;;;;;8.28;100.00;99711.91;10491927;22;20052;-70
2022/11/05 05:38:37;;;;;;;25.45;22.40;;;;;;;8.32;100.00;99717.88;10486158;28;20051;-70
2022/11/05 05:43:38;;;;;;;31.58;22.33;;;;;;;8.33;100.00;99715.25;10502903;28;20040;-70
2022/11/05 05:48:41;;;;;;;31.48;22.98;;;;;;;8.20;100.00;99715.63;10503375;28;20052;-70
2022/11/05 05:53:43;;;;;;;25.65;21.67;;;;;;;8.15;100.00;99722.75;10502535;28;20041;-70
2022/11/05 05:58:45;;;;;;;29.45;24.00;;;;;;;8.15;100.00;99733.22;10502806;28;20490;-70
2022/11/05 06:03:47;;;;;;;32.20;22.33;;;;;;;8.15;100.00;99734.09;10502317;28;20044;-70
2022/11/05 06:08:49;;;;;;;31.13;22.45;;;;;;;8.28;100.00;99745.09;10501834;28;20052;-70
2022/11/05 06:13:50;;;;;;;33.20;22.55;;;;;;;8.18;100.00;99739.22;10501391;28;20090;-70
2022/11/05 06:18:52;;;;;;;29.55;21.83;;;;;;;8.39;100.00;99744.81;10502108;28;20098;-70
2022/11/05 06:23:53;;;;;;;37.42;22.20;;;;;;;8.34;100.00;99751.00;10502385;28;20033;-70
2022/11/05 06:28:55;;;;;;;26.15;21.45;;;;;;;8.33;100.00;99756.28;10501482;28;20045;-70
2022/11/05 06:33:57;;;;;;;27.58;22.23;;;;;;;8.37;100.00;99775.41;10501184;28;20086;-70
2022/11/05 06:38:58;;;;;;;46.30;34.60;;;;;;;8.43;100.00;99781.34;10500805;28;20447;-70
2022/11/05 06:44:00;;;;;;;25.48;21.75;;;;;;;8.39;100.00;99791.97;10483658;28;20040;-70
2022/11/05 06:49:02;;;;;;;31.58;22.15;;;;;;;8.33;100.00;99808.66;10500669;28;20040;-70
2022/11/05 06:54:03;;;;;;;27.98;23.15;;;;;;;8.44;100.00;99811.88;10500755;28;20174;-71
2022/11/05 06:59:07;;;;;;;32.13;22.25;;;;;;;8.40;100.00;99814.63;10493060;28;20189;-69
2022/11/05 07:04:11;;;;;;;25.00;22.48;;;;;;;8.53;100.00;99829.97;10481841;28;20093;-69
2022/11/05 07:09:12;;;;;;;41.20;22.45;;;;;;;8.43;100.00;99836.38;10499922;28;20476;-69
2022/11/05 07:14:14;;;;;;;30.48;20.20;;;;;;;8.44;100.00;99851.16;10499482;28;20044;-70
2022/11/05 07:19:15;;;;;;;30.77;21.77;;;;;;;8.45;100.00;99858.13;10499631;28;20048;-71
2022/11/05 07:24:17;;;;;;;26.17;20.30;;;;;;;8.54;100.00;99864.88;10498974;28;20076;-71
2022/11/05 07:29:18;;;;;;;22.55;20.30;;;;;;;8.78;100.00;99881.75;10499240;28;20098;-70
2022/11/05 07:34:20;;;;;;;23.35;20.85;;;;;;;8.73;100.00;99889.72;10499746;28;20045;-70
2022/11/05 07:39:22;;;;;;;23.27;20.90;;;;;;;8.59;100.00;99897.09;10499212;28;20052;-70
2022/11/05 07:44:23;;;;;;;28.15;22.00;;;;;;;8.63;100.00;99903.09;10499745;28;20342;-70
2022/11/05 07:49:25;;;;;;;27.50;20.23;;;;;;;8.51;100.00;99901.66;10498626;28;20049;-70
2022/11/05 07:54:26;;;;;;;26.27;22.35;;;;;;;8.64;100.00;99910.06;10480809;28;20113;-70
2022/11/05 07:59:28;;;;;;;25.30;21.15;;;;;;;8.86;100.00;99915.63;10480685;28;20490;-70
2022/11/05 08:04:30;;;;;;;24.02;20.05;;;;;;;8.83;100.00;99919.16;10498455;28;20048;-70
2022/11/05 08:09:31;;;;;;;21.00;18.73;;;;;;;9.01;100.00;99928.28;10498929;28;20048;-71
2022/11/05 08:14:33;;;;;;;23.55;17.33;;;;;;;9.42;100.00;99931.53;10498631;28;20044;-71
2022/11/05 08:19:34;;;;;;;22.90;16.45;;;;;;;9.47;100.00;99932.25;10499352;28;20052;-71
2022/11/05 08:24:36;;;;;;;19.75;14.82;;;;;;;9.53;100.00;99937.34;10497753;28;20048;-71
2022/11/05 08:29:37;;;;;;;16.35;14.70;;;;;;;9.45;100.00;99941.94;10498055;28;20044;-71
2022/11/05 08:34:39;;;;;;;28.17;15.02;;;;;;;9.46;100.00;99947.13;10481311;28;20064;-70
2022/11/05 08:39:41;;;;;;;21.83;16.17;;;;;;;9.19;100.00;99948.75;10503658;28;20044;-71
2022/11/05 08:44:42;;;;;;;23.10;16.60;;;;;;;9.52;100.00;99961.84;10506556;28;20078;-71
2022/11/05 08:49:44;;;;;;;17.17;15.38;;;;;;;9.57;100.00;99968.69;10509380;28;20052;-70
2022/11/05 08:54:46;;;;;;;20.08;14.93;;;;;;;9.74;100.00;99969.94;10490209;28;20051;-71
2022/11/05 08:59:48;;;;;;;21.35;13.63;;;;;;;9.77;100.00;99978.59;10507782;28;20044;-70
2022/11/05 09:04:49;;;;;;;15.95;13.45;;;;;;;9.63;100.00;99982.53;10491621;28;20072;-70
2022/11/05 09:09:51;;;;;;;16.67;14.48;;;;;;;9.77;100.00;99981.22;10511482;28;20055;-70
2022/11/05 09:14:53;;;;;;;21.42;14.73;;;;;;;9.88;100.00;99982.69;10490602;28;20059;-70
2022/11/05 09:19:54;;;;;;;19.58;13.52;;;;;;;9.89;100.00;99981.78;10490667;28;20094;-70
2022/11/05 09:24:56;;;;;;;14.77;12.93;;;;;;;9.91;100.00;99983.44;10507852;28;20099;-71
2022/11/05 09:29:58;;;;;;;21.13;12.35;;;;;;;9.69;100.00;99991.06;10508563;28;20059;-71
2022/11/05 09:35:00;;;;;;;16.15;10.45;;;;;;;10.01;99.06;99992.78;10504557;28;20040;-70
2022/11/05 09:40:02;;;;;;;15.45;10.95;;;;;;;10.15;98.86;99994.97;10503863;28;20383;-71
2022/11/05 09:45:09;;;;;;;18.00;8.65;;;;;;;9.82;100.00;99997.69;10484088;28;20090;-71
2022/11/05 09:50:17;;;;;;;;;;;;;;;9.71;99.86;99989.28;10485163;28;20052;-71
2022/11/05 09:55:34;;;;;;;16.10;9.40;;;;;;;9.52;100.00;100006.47;10503204;28;20373;-70
2022/11/05 10:00:36;;;;;;;12.70;10.32;;;;;;;9.77;100.00;100001.38;10502804;28;20044;-71
2022/11/05 10:05:39;;;;;;;14.98;9.35;;;;;;;9.91;100.00;100011.47;10502432;28;20040;-70
2022/11/05 10:10:45;;;;;;;15.18;7.93;;;;;;;10.43;99.46;100009.91;10503887;28;20051;-69
2022/11/05 10:15:56;;;;;;;12.32;6.97;;;;;;;10.19;98.73;100014.13;10460914;28;20041;-69
2022/11/05 10:20:58;;;;;;;15.20;6.93;;;;;;;10.26;96.67;100029.69;10460400;28;20041;-71
2022/11/05 10:26:08;;;;;;;10.80;6.43;;;;;;;10.49;94.92;100030.72;10461171;28;20127;-70
2022/11/05 10:31:13;;;;;;;12.85;6.15;;;;;;;10.44;93.95;100030.88;10449823;28;20061;-69
2022/11/05 10:36:28;;;;;;;11.55;6.05;;;;;;;10.57;93.66;100033.97;10496087;28;20049;-70
2022/11/05 10:41:51;;;;;;;15.77;5.03;;;;;;;11.16;85.90;100032.94;10443141;28;20048;-70
2022/11/05 10:47:23;;;;;;;15.88;5.10;;;;;;;12.04;81.91;100032.41;10459516;28;20045;-70
2022/11/05 10:52:34;;;;;;;9.65;3.22;;;;;;;12.33;78.84;100031.28;10444361;28;20403;-69
2022/11/05 10:57:38;;;;;;;5.10;2.97;;;;;;;12.54;75.47;100039.28;10459235;28;20044;-71
2022/11/05 11:02:48;;;;;;;8.63;2.67;;;;;;;12.22;77.00;100041.41;10457833;28;20048;-69
2022/11/05 11:07:54;;;;;;;12.73;3.38;;;;;;;11.62;79.41;100043.56;10467041;28;20040;-71
2022/11/05 11:12:57;;;;;;;9.35;5.10;;;;;;;11.46;81.39;100049.44;10441779;28;20045;-71
2022/11/05 11:18:23;;;;;;;10.55;4.10;;;;;;;11.34;78.99;100054.22;10458913;28;20044;-69
2022/11/05 11:23:26;;;;;;;6.03;2.58;;;;;;;11.80;81.32;100047.31;10442633;28;20170;-70
2022/11/05 11:28:36;;;;;;;8.48;2.20;;;;;;;12.20;78.29;100053.75;10497612;28;20394;-69
2022/11/05 11:33:41;;;;;;;6.63;2.58;;;;;;;11.95;77.96;100052.94;10514459;22;20040;-70
2022/11/05 11:38:43;;;;;;;10.25;2.92;;;;;;;11.53;80.98;100062.31;10502734;28;20497;-70
2022/11/05 11:43:45;;;;;;;5.97;2.42;;;;;;;11.13;84.71;100060.22;10490015;28;20585;-71
2022/11/05 11:48:48;;;;;;;10.93;4.70;;;;;;;11.17;82.62;100061.81;10499369;28;20044;-71
2022/11/05 11:53:56;;;;;;;9.43;2.83;;;;;;;11.03;83.73;100064.91;10481977;28;20413;-70
2022/11/05 11:59:14;;;;;;;7.90;2.60;;;;;;;11.00;86.25;100057.13;10498216;28;20448;-71
2022/11/05 12:04:37;;;;;;;8.20;2.75;;;;;;;11.23;84.23;100058.13;10481756;28;20385;-71
2022/11/05 12:10:11;;;;;;;9.02;2.50;;;;;;;11.50;79.25;100051.03;10500829;28;20048;-71
2022/11/05 12:15:38;;;;;;;6.63;1.60;;;;;;;11.50;77.80;100046.63;10381660;28;20061;-71
2022/11/05 12:20:51;;;;;;;7.57;2.13;;;;;;;11.67;77.40;100051.31;10388735;28;20046;-71
2022/11/05 12:26:31;;;;;;;7.05;1.70;;;;;;;11.55;78.70;100052.63;10423211;28;20053;-70
2022/11/05 12:31:43;;;;;;;9.35;1.73;;;;;;;11.49;77.52;100047.56;10421459;28;20454;-71
2022/11/05 12:37:15;;;;;;;13.98;2.78;;;;;;;11.09;81.82;100055.97;10405740;28;20060;-71
2022/11/05 12:42:32;;;;;;;5.13;1.45;;;;;;;10.94;81.49;100064.38;10406416;28;20053;-72
2022/11/05 12:47:34;;;;;;;;;;;;;;;10.86;82.05;100075.13;10436447;28;20052;-72
2022/11/05 12:52:55;;;;;;;13.30;2.03;;;;;;;10.88;84.79;100067.19;10531980;28;19931;-72
2022/11/05 12:58:11;;;;;;;7.82;2.42;;;;;;;11.23;83.84;100069.50;10526720;28;20047;-71
2022/11/05 13:03:20;;;;;;;10.70;2.17;;;;;;;11.33;81.69;100070.03;10509790;28;20044;-70
2022/11/05 13:08:38;;;;;;;6.38;2.03;;;;;;;11.78;69.87;100064.09;10507121;28;20043;-70
2022/11/05 13:13:52;;;;;;;6.97;2.30;;;;;;;11.59;71.53;100070.00;10508269;28;20574;-71
2022/11/05 13:19:01;;;;;;;4.95;1.70;;;;;;;11.62;70.45;100066.41;10489418;28;20416;-70
2022/11/05 13:24:21;;;;;;;8.40;1.48;;;;;;;11.47;69.65;100070.44;10487097;28;20044;-71
2022/11/05 13:29:26;;;;;;;4.80;1.42;;;;;;;11.45;69.79;100072.25;10488342;28;20044;-71
2022/11/05 13:34:27;;;;;;;11.57;1.45;;;;;;;11.35;74.34;100084.88;10505964;28;20033;-71
2022/11/05 13:39:42;;;;;;;10.10;1.60;;;;;;;11.30;73.51;100092.06;10490737;28;20046;-71
2022/11/05 13:44:59;;;;;;;13.40;2.13;;;;;;;11.25;73.34;100103.69;10499197;28;20053;-71
2022/11/05 13:50:39;;;;;;;8.60;2.13;;;;;;;10.96;74.98;100102.84;10487538;28;20071;-71
2022/11/05 13:56:00;;;;;;;7.88;1.83;;;;;;;10.63;78.66;100107.41;10472589;28;20056;-70
2022/11/05 14:01:07;;;;;;;4.57;1.48;;;;;;;10.95;76.76;100110.78;10505005;28;20076;-70
2022/11/05 14:06:09;;;;;;;7.68;2.00;;;;;;;10.86;78.04;100112.81;10505249;28;20040;-69
2022/11/05 14:11:26;;;;;;;7.30;1.80;;;;;;;10.60;80.35;100113.59;10527477;28;20037;-70
2022/11/05 14:16:46;;;;;;;5.82;2.05;;;;;;;10.45;79.74;100115.88;10519989;28;20036;-70
2022/11/05 14:21:50;;;;;;;4.95;1.33;;;;;;;10.39;75.38;100121.28;10506031;28;20098;-71
2022/11/05 14:27:01;;;;;;;3.55;1.10;;;;;;;10.08;75.64;100112.47;10533406;28;20382;-71
2022/11/05 14:32:18;;;;;;;5.25;1.25;;;;;;;10.11;74.44;100117.66;10516952;28;20056;-70
2022/11/05 14:37:24;;;;;;;;;;;;;;;10.22;74.14;100116.47;10544825;28;20444;-71
2022/11/05 14:42:26;;;;;;;5.57;1.70;;;;;;;9.97;78.56;100118.97;10524318;28;19928;-71
2022/11/05 14:47:31;;;;;;;5.85;1.48;;;;;;;10.01;77.80;100126.72;10485353;28;20110;-71
2022/11/05 14:52:34;;;;;;;3.53;1.23;;;;;;;10.00;78.72;100124.97;10500979;28;20044;-72
2022/11/05 14:57:42;;;;;;;6.97;2.00;;;;;;;9.76;81.15;100131.75;10483189;28;20409;-71
2022/11/05 15:02:56;;;;;;;4.10;1.40;;;;;;;9.46;84.54;100138.66;10505720;28;20036;-70
2022/11/05 15:08:18;;;;;;;5.72;1.80;;;;;;;9.36;85.71;100145.06;10522759;28;20048;-71
2022/11/05 15:13:31;;;;;;;5.93;2.22;;;;;;;9.00;89.10;100146.81;10524015;28;20104;-71
2022/11/05 15:18:43;;;;;;;6.05;2.45;;;;;;;8.77;91.88;100152.59;10488695;28;20058;-71
2022/11/05 15:23:47;;;;;;;6.13;2.35;;;;;;;8.75;91.93;100163.09;10495049;28;20131;-70
2022/11/05 15:28:51;;;;;;;5.95;2.50;;;;;;;8.52;93.68;100167.97;10541869;28;20048;-71
2022/11/05 15:34:17;;;;;;;4.63;2.65;;;;;;;8.36;95.44;100156.91;10541770;28;20040;-71
2022/11/05 15:39:39;;;;;;;6.75;3.15;;;;;;;8.20;96.52;100169.47;10541171;28;20116;-71
2022/11/05 15:44:46;;;;;;;9.55;3.05;;;;;;;8.19;97.31;100170.38;10523790;28;20063;-71
2022/11/05 15:50:04;;;;;;;11.60;3.35;;;;;;;7.92;99.10;100173.50;10523377;28;20044;-72
2022/11/05 15:55:13;;;;;;;7.35;3.80;;;;;;;7.81;100.00;100179.81;10523302;28;20568;-71
2022/11/05 16:00:27;;;;;;;8.18;5.20;;;;;;;7.76;100.00;100183.41;10540365;28;20051;-72
2022/11/05 16:05:40;;;;;;;15.90;6.85;;;;;;;7.59;100.00;100179.31;10541123;28;20080;-71
2022/11/05 16:10:47;;;;;;;8.13;5.80;;;;;;;7.39;100.00;100189.25;10542090;28;20439;-71
2022/11/05 16:15:57;;;;;;;12.60;6.80;;;;;;;7.31;100.00;100194.63;10540077;28;20443;-71
2022/11/05 16:21:06;;;;;;;11.10;7.35;;;;;;;7.19;100.00;100188.72;10540596;28;20468;-71
2022/11/05 16:26:36;;;;;;;12.90;9.48;;;;;;;7.09;100.00;100195.84;10541441;28;20150;-72
2022/11/05 16:31:59;;;;;;;14.85;9.82;;;;;;;6.99;100.00;100199.44;10541144;28;20036;-72
2022/11/05 16:37:03;;;;;;;13.88;8.65;;;;;;;6.98;100.00;100206.44;10541029;28;20109;-71
2022/11/05 16:42:35;;;;;;;10.75;6.22;;;;;;;7.25;100.00;100204.28;10541343;28;20123;-70
2022/11/05 16:47:37;;;;;;;6.65;5.00;;;;;;;7.30;100.00;100212.91;10525643;28;20044;-71
2022/11/05 16:52:38;;;;;;;9.13;5.30;;;;;;;7.22;100.00;100213.06;10542763;28;20115;-71
2022/11/05 16:57:43;;;;;;;11.45;5.32;;;;;;;7.13;100.00;100218.44;10543586;28;20048;-71
2022/11/05 17:02:45;;;;;;;9.43;6.32;;;;;;;7.14;100.00;100221.91;10554144;28;20058;-72
2022/11/05 17:07:47;;;;;;;7.63;6.32;;;;;;;7.18;100.00;100219.22;10531976;28;20040;-71
2022/11/05 17:12:49;;;;;;;12.00;7.28;;;;;;;7.26;100.00;100226.94;10547186;28;20074;-71
2022/11/05 17:17:53;;;;;;;9.52;6.97;;;;;;;7.20;100.00;100225.28;10487523;28;20143;-71
2022/11/05 17:22:56;;;;;;;12.88;8.13;;;;;;;7.11;100.00;100230.66;10486985;28;20055;-71
2022/11/05 17:27:58;;;;;;;12.43;8.45;;;;;;;6.99;100.00;100233.44;10505800;28;20394;-71
2022/11/05 17:33:00;;;;;;;15.63;7.95;;;;;;;6.84;100.00;100242.34;10505725;28;20043;-71
2022/11/05 17:38:02;;;;;;;13.32;7.68;;;;;;;6.88;100.00;100240.56;10506803;28;20135;-70
2022/11/05 17:43:08;;;;;;;11.30;6.85;;;;;;;6.75;100.00;100237.25;10486451;28;20048;-71
2022/11/05 17:48:11;;;;;;;13.27;8.23;;;;;;;6.48;100.00;100239.31;10505078;28;20075;-72
2022/11/05 17:53:14;;;;;;;8.98;6.15;;;;;;;6.39;100.00;100251.63;10504138;28;20045;-71
2022/11/05 17:58:16;;;;;;;10.40;7.80;;;;;;;6.20;100.00;100257.03;10489236;22;20092;-68
2022/11/05 18:03:18;;;;;;;12.73;7.70;;;;;;;6.15;100.00;100261.41;10443680;28;20490;-68
2022/11/05 18:08:19;;;;;;;8.38;6.60;;;;;;;6.12;100.00;100264.09;10459758;28;20525;-68
2022/11/05 18:13:21;;;;;;;16.00;9.40;;;;;;;6.05;100.00;100276.31;10460209;28;20060;-68
2022/11/05 18:18:23;;;;;;;18.40;16.40;;;;;;;5.96;100.00;100276.41;10460212;28;20044;-68
2022/11/05 18:23:25;;;;;;;27.27;19.17;;;;;;;5.92;100.00;100279.91;10460077;28;20087;-69
2022/11/05 18:28:28;;;;;;;25.92;20.77;;;;;;;5.83;100.00;100293.00;10459232;28;20206;-69
2022/11/05 18:33:30;;;;;;;45.17;32.20;;;;;;;5.78;100.00;100285.22;10441937;28;20402;-69
2022/11/05 18:38:32;;;;;;;30.55;24.23;;;;;;;5.79;100.00;100291.28;10441371;28;20482;-69
2022/11/05 18:43:33;;;;;;;24.17;21.15;;;;;;;5.72;100.00;100305.28;10441204;28;20049;-69
2022/11/05 18:48:35;;;;;;;25.77;19.23;;;;;;;5.77;100.00;100306.09;10442258;28;20048;-69
2022/11/05 18:53:38;;;;;;;22.92;19.00;;;;;;;5.63;100.00;100295.78;10458777;28;20453;-69
2022/11/05 18:58:40;;;;;;;19.27;17.38;;;;;;;5.59;100.00;100304.50;10458270;28;20045;-69
2022/11/05 19:03:41;;;;;;;20.38;16.83;;;;;;;5.69;100.00;100303.53;10460075;28;20537;-69
2022/11/05 19:08:43;;;;;;;36.15;21.23;;;;;;;5.42;100.00;100304.59;10459973;28;20119;-69
2022/11/05 19:13:45;;;;;;;26.05;19.48;;;;;;;5.30;100.00;100295.13;10469031;28;20041;-69
2022/11/05 19:18:47;;;;;;;20.83;15.95;;;;;;;5.36;100.00;100290.72;10458258;28;20071;-68
2022/11/05 19:23:49;;;;;;;21.83;15.90;;;;;;;5.25;100.00;100304.72;10439130;28;20045;-69
2022/11/05 19:28:51;;;;;;;15.90;13.30;;;;;;;5.59;100.00;100301.03;10419851;28;20049;-69
2022/11/05 19:33:54;;;;;;;13.00;11.70;;;;;;;5.71;100.00;100306.13;10438235;28;20045;-70
2022/11/05 19:38:58;;;;;;;14.45;12.80;;;;;;;5.56;100.00;100309.72;10457266;28;20081;-69
2022/11/05 19:44:02;;;;;;;12.43;11.13;;;;;;;5.29;100.00;100305.56;10438864;28;20096;-68
2022/11/05 19:49:03;;;;;;;15.13;12.45;;;;;;;5.18;100.00;100309.94;10438372;28;20053;-69
2022/11/05 19:54:07;;;;;;;14.32;12.55;;;;;;;5.09;100.00;100323.94;10458154;28;20516;-68
2022/11/05 19:59:10;;;;;;;14.10;12.13;;;;;;;4.95;100.00;100313.53;10456411;28;20067;-70
2022/11/05 20:04:12;;;;;;;16.27;13.50;;;;;;;5.00;100.00;100319.63;10457321;28;20037;-70
2022/11/05 20:09:16;;;;;;;13.85;12.55;;;;;;;5.05;100.00;100330.03;10440329;28;20040;-70
2022/11/05 20:14:24;;;;;;;;;;;;;;;4.89;100.00;100326.59;10484347;28;20094;-69
2022/11/05 20:19:25;;;;;;;20.60;18.73;;;;;;;4.86;100.00;100325.75;10498485;28;19924;-70
2022/11/05 20:24:27;;;;;;;15.55;13.95;;;;;;;4.77;100.00;100335.31;10498639;28;20040;-70
2022/11/05 20:29:29;;;;;;;14.70;13.27;;;;;;;4.76;100.00;100348.34;10499443;28;20048;-70
2022/11/05 20:34:36;;;;;;;28.88;20.65;;;;;;;4.97;100.00;100353.50;10507087;28;20091;-69
2022/11/05 20:39:38;;;;;;;42.97;29.80;;;;;;;4.98;100.00;100354.34;10506551;28;20044;-70
2022/11/05 20:44:40;;;;;;;47.75;33.30;;;;;;;4.61;100.00;100361.44;10507833;28;20072;-70
2022/11/05 20:49:42;;;;;;;57.47;34.10;;;;;;;4.53;100.00;100369.25;10491285;28;20040;-70
2022/11/05 20:54:44;;;;;;;56.55;33.88;;;;;;;4.35;100.00;100366.69;10472004;28;20055;-69
2022/11/05 20:59:46;;;;;;;58.50;34.35;;;;;;;4.57;100.00;100357.97;10506229;28;20080;-69
2022/11/05 21:04:48;;;;;;;50.65;34.65;;;;;;;4.24;100.00;100351.06;10487489;28;20036;-70
2022/11/05 21:09:49;;;;;;;46.47;33.03;;;;;;;4.39;100.00;100358.00;10505015;28;20472;-69
2022/11/05 21:14:51;;;;;;;44.65;29.90;;;;;;;4.25;100.00;100348.47;10487511;28;20036;-69
2022/11/05 21:19:53;;;;;;;32.28;28.65;;;;;;;4.10;100.00;100345.00;10505343;28;20044;-69
2022/11/05 21:24:55;;;;;;;51.67;29.52;;;;;;;4.14;100.00;100347.59;10503348;28;20075;-69
2022/11/05 21:29:57;;;;;;;37.05;28.52;;;;;;;3.95;100.00;100354.56;10503068;28;20547;-69
2022/11/05 21:34:58;;;;;;;39.75;28.45;;;;;;;3.84;100.00;100355.41;10503502;28;20405;-69
2022/11/05 21:40:00;;;;;;;31.65;26.13;;;;;;;3.72;100.00;100356.28;10504184;28;20036;-69
2022/11/05 21:45:02;;;;;;;27.75;24.70;;;;;;;3.71;100.00;100357.97;10502291;28;20436;-69
2022/11/05 21:50:03;;;;;;;38.38;27.27;;;;;;;3.75;100.00;100362.31;10503818;28;20050;-68
2022/11/05 22:00:26;;;;;;;26.77;23.58;;;;;;;3.99;100.00;100363.22;10504351;28;20119;-70
2022/11/05 22:05:29;;;;;;;26.00;22.13;;;;;;;3.89;100.00;100354.53;10484601;28;20044;-69
2022/11/05 22:10:33;;;;;;;22.85;20.55;;;;;;;3.83;100.00;100364.06;10483780;28;20385;-68
2022/11/05 22:15:34;;;;;;;22.02;19.20;;;;;;;3.87;100.00;100353.69;10502496;28;20040;-69
2022/11/05 22:20:38;;;;;;;27.88;19.77;;;;;;;3.61;100.00;100351.03;10501844;28;20044;-69
2022/11/05 22:25:39;;;;;;;20.58;18.83;;;;;;;3.45;100.00;100349.28;10503311;28;20090;-68
2022/11/05 22:30:41;;;;;;;23.15;19.00;;;;;;;3.34;100.00;100341.47;10501527;28;20048;-69
2022/11/05 22:35:42;;;;;;;19.83;18.20;;;;;;;3.38;100.00;100347.53;10501457;28;20075;-69
2022/11/05 22:40:44;;;;;;;19.17;17.35;;;;;;;3.23;100.00;100341.44;10484114;28;20045;-69
2022/11/05 22:45:46;;;;;;;21.33;17.58;;;;;;;3.24;100.00;100337.13;10503848;28;20094;-69
2022/11/05 22:50:47;;;;;;;19.23;17.33;;;;;;;3.28;100.00;100342.31;10501038;28;20044;-69
2022/11/05 22:55:49;;;;;;;18.73;16.90;;;;;;;3.43;100.00;100341.47;10481499;28;20040;-69
2022/11/05 23:00:50;;;;;;;19.00;17.25;;;;;;;3.16;100.00;100333.63;10499512;28;20044;-69
2022/11/05 23:06:04;;;;;;;19.10;17.55;;;;;;;2.96;100.00;100336.13;10481244;28;20076;-69
2022/11/05 23:11:56;;;;;;;16.92;15.52;;;;;;;2.98;100.00;100343.09;10499802;28;20497;-71
2022/11/05 23:27:21;;;;;;;17.08;15.48;;;;;;;3.12;100.00;100347.47;10499901;28;20060;-70
2022/11/05 23:32:22;;;;;;;15.32;14.02;;;;;;;3.00;100.00;100358.66;10499594;28;20044;-70
2022/11/05 23:48:31;;;;;;;14.02;12.90;;;;;;;2.73;100.00;100346.41;10498677;28;20123;-69
2022/11/05 23:53:35;;;;;;;15.57;14.30;;;;;;;2.61;100.00;100355.03;10499547;28;20098;-70
2022/11/05 23:58:37;;;;;;;14.80;13.60;;;;;;;2.44;100.00;100372.22;10485048;22;20065;-72
